createdAt,value
2023-01-21T00:03:21.432Z,101364.75
2023-01-21T00:08:24.156Z,101371.72
2023-01-21T00:13:26.926Z,101384.09
2023-01-21T00:18:31.134Z,101393.84
2023-01-21T00:23:33.969Z,101395.53
2023-01-21T00:28:37.648Z,101400.78
2023-01-21T00:33:41.786Z,101409.56
2023-01-21T00:38:44.539Z,101414.84
2023-01-21T00:43:47.307Z,101416.63
2023-01-21T00:48:51.463Z,101422.81
2023-01-21T00:53:54.238Z,101427.22
2023-01-21T00:58:57.051Z,101435.97
2023-01-21T01:04:01.367Z,101452.59
2023-01-21T01:09:04.291Z,101459.63
2023-01-21T01:14:07.046Z,101471.03
2023-01-21T01:19:12.528Z,101482.44
2023-01-21T01:24:15.309Z,101490.38
2023-01-21T01:29:18.580Z,101484.28
2023-01-21T01:34:22.988Z,101500.06
2023-01-21T01:39:25.960Z,101500.09
2023-01-21T01:44:58.037Z,101512.28
2023-01-21T01:50:03.892Z,101526.34
2023-01-21T01:55:08.257Z,101533.41
2023-01-21T02:00:13.229Z,101548.38
2023-01-21T02:05:17.358Z,101549.31
2023-01-21T02:10:21.122Z,101557.25
2023-01-21T02:15:29.620Z,101569.53
2023-01-21T02:21:07.280Z,101576.59
2023-01-21T02:26:35.677Z,101579.19
2023-01-21T02:31:59.036Z,101578.31
2023-01-21T02:37:10.923Z,101576.56
2023-01-21T02:42:23.331Z,101584.47
2023-01-21T02:47:30.513Z,101586.19
2023-01-21T02:52:34.725Z,101591.47
2023-01-21T02:57:43.114Z,101596.81
2023-01-21T03:03:14.377Z,101598.56
2023-01-21T03:08:22.874Z,101605.53
2023-01-21T03:13:50.041Z,101604.72
2023-01-21T03:18:57.156Z,101603.81
2023-01-21T03:24:02.690Z,101607.28
2023-01-21T03:29:10.208Z,101609.91
2023-01-21T03:34:16.274Z,101618.69
2023-01-21T03:39:30.082Z,101607.13
2023-01-21T03:44:33.094Z,101609.63
2023-01-21T03:49:39.678Z,101612.19
2023-01-21T03:54:43.862Z,101613.84
2023-01-21T03:59:46.989Z,101617.25
2023-01-21T04:04:49.817Z,101617.13
2023-01-21T04:09:53.959Z,101623.22
2023-01-21T04:14:57.132Z,101623.16
2023-01-21T04:19:59.895Z,101631.88
2023-01-21T04:25:05.197Z,101635.38
2023-01-21T04:30:09.563Z,101637.03
2023-01-21T04:35:12.277Z,101638.78
2023-01-21T04:40:16.701Z,101637.00
2023-01-21T04:45:19.621Z,101638.63
2023-01-21T04:50:22.364Z,101643.81
2023-01-21T04:55:26.586Z,101649.88
2023-01-21T05:00:29.344Z,101652.50
2023-01-21T05:05:32.106Z,101645.47
2023-01-21T05:10:36.244Z,101653.34
2023-01-21T05:15:39.078Z,101658.56
2023-01-21T05:20:41.856Z,101665.56
2023-01-21T05:25:45.941Z,101665.56
2023-01-21T05:30:48.762Z,101676.09
2023-01-21T05:35:51.470Z,101683.94
2023-01-21T05:40:59.233Z,101688.31
2023-01-21T05:46:02.004Z,101692.72
2023-01-21T05:51:05.287Z,101697.97
2023-01-21T05:56:09.549Z,101710.28
2023-01-21T06:01:12.307Z,101723.41
2023-01-21T06:06:15.138Z,101718.09
2023-01-21T06:11:19.249Z,101732.97
2023-01-21T06:16:22.037Z,101731.19
2023-01-21T06:21:24.777Z,101735.47
2023-01-21T06:26:29.065Z,101733.63
2023-01-21T06:31:32.019Z,101743.38
2023-01-21T06:36:35.639Z,101758.34
2023-01-21T06:41:39.760Z,101760.09
2023-01-21T06:46:45.979Z,101762.78
2023-01-21T06:51:56.308Z,101760.03
2023-01-21T06:57:00.528Z,101761.81
2023-01-21T07:02:03.301Z,101770.56
2023-01-21T07:07:06.059Z,101768.78
2023-01-21T07:12:10.628Z,101776.69
2023-01-21T07:17:13.555Z,101786.34
2023-01-21T07:22:16.363Z,101792.53
2023-01-21T07:27:20.521Z,101798.69
2023-01-21T07:32:23.397Z,101802.28
2023-01-21T07:37:26.117Z,101812.75
2023-01-21T07:42:30.233Z,101812.75
2023-01-21T07:47:32.988Z,101815.47
2023-01-21T07:52:35.748Z,101825.91
2023-01-21T07:57:39.912Z,101827.59
2023-01-21T08:02:42.747Z,101832.78
2023-01-21T08:07:45.603Z,101843.31
2023-01-21T08:12:49.752Z,101850.25
2023-01-21T08:17:52.457Z,101858.97
2023-01-21T08:22:55.177Z,101855.44
2023-01-21T08:28:01.098Z,101852.75
2023-01-21T08:33:06.321Z,101857.06
2023-01-21T08:38:09.227Z,101849.91
2023-01-21T08:43:13.329Z,101858.22
2023-01-21T08:48:16.157Z,101864.69
2023-01-21T08:53:18.930Z,101864.88
2023-01-21T08:58:23.058Z,101869.81
2023-01-21T09:03:25.973Z,101873.22
2023-01-21T09:08:28.823Z,101877.97
2023-01-21T09:13:34.419Z,101892.69
2023-01-21T09:18:37.461Z,101899.13
2023-01-21T09:23:41.180Z,101909.94
2023-01-21T09:28:47.726Z,101910.78
2023-01-21T09:33:52.588Z,101919.69
2023-01-21T09:38:55.808Z,101930.34
2023-01-21T09:44:05.954Z,101938.28
2023-01-21T09:49:15.675Z,101944.31
2023-01-21T09:54:23.022Z,101953.00
2023-01-21T09:59:42.586Z,101963.66
2023-01-21T10:04:52.360Z,101963.66
2023-01-21T10:10:06.933Z,101964.47
2023-01-21T10:15:31.339Z,101972.31
2023-01-21T10:20:38.349Z,101976.56
2023-01-21T10:25:42.189Z,101975.50
2023-01-21T10:30:51.174Z,101970.19
2023-01-21T10:36:20.243Z,101971.94
2023-01-21T10:41:33.868Z,101973.84
2023-01-21T10:46:46.440Z,101976.47
2023-01-21T10:51:56.683Z,101973.06
2023-01-21T10:57:07.820Z,101984.34
2023-01-21T11:02:22.670Z,101981.50
2023-01-21T11:07:27.094Z,101979.63
2023-01-21T11:12:30.677Z,101968.81
2023-01-21T11:17:36.912Z,101968.44
2023-01-21T11:22:43.609Z,101957.56
2023-01-21T11:27:46.343Z,101961.88
2023-01-21T11:32:50.475Z,101964.34
2023-01-21T11:37:53.251Z,101958.84
2023-01-21T11:42:57.562Z,101954.38
2023-01-21T11:48:02.005Z,101954.69
2023-01-21T11:53:14.130Z,101953.53
2023-01-21T11:58:20.185Z,101959.19
2023-01-21T12:03:27.779Z,101964.13
2023-01-21T12:08:32.826Z,101953.19
2023-01-21T12:13:44.821Z,101957.97
2023-01-21T12:19:08.657Z,101947.41
2023-01-21T12:24:21.302Z,101953.69
2023-01-21T12:29:46.111Z,101951.66
2023-01-21T12:34:56.308Z,101951.66
2023-01-21T12:40:02.373Z,101943.34
2023-01-21T12:45:12.512Z,101943.00
2023-01-21T12:50:27.449Z,101945.94
2023-01-21T12:55:42.466Z,101939.97
2023-01-21T13:00:49.348Z,101945.28
2023-01-21T13:05:58.434Z,101947.22
2023-01-21T13:11:08.421Z,101943.72
2023-01-21T13:16:12.826Z,101935.84
2023-01-21T13:21:28.207Z,101953.38
2023-01-21T13:26:38.225Z,101955.75
2023-01-21T13:31:48.090Z,101961.47
2023-01-21T13:37:03.761Z,101961.47
2023-01-21T13:42:25.575Z,101959.41
2023-01-21T13:47:44.254Z,101955.88
2023-01-21T13:53:07.677Z,101956.53
2023-01-21T13:58:14.111Z,101939.69
2023-01-21T14:03:26.146Z,101948.00
2023-01-21T14:08:35.433Z,101941.22
2023-01-21T14:13:59.977Z,101958.31
2023-01-21T14:19:23.935Z,101962.47
2023-01-21T14:24:45.264Z,101948.00
2023-01-21T14:29:55.586Z,101964.34
2023-01-21T14:35:15.117Z,101961.97
2023-01-21T14:40:24.201Z,101968.31
2023-01-21T14:45:54.047Z,101971.06
2023-01-21T14:51:10.956Z,101964.06
2023-01-21T14:56:24.433Z,101955.44
2023-01-21T15:01:31.616Z,101962.56
2023-01-21T15:06:39.500Z,101966.16
2023-01-21T15:11:45.248Z,101974.09
2023-01-21T15:16:48.908Z,101961.78
2023-01-21T15:22:17.848Z,101958.31
2023-01-21T15:27:22.945Z,101961.09
2023-01-21T15:32:29.851Z,101962.06
2023-01-21T15:37:37.541Z,101961.31
2023-01-21T15:42:50.646Z,101965.94
2023-01-21T15:48:15.586Z,101958.00
2023-01-21T15:53:41.746Z,101957.94
2023-01-21T15:58:57.225Z,101957.13
2023-01-21T16:04:19.678Z,101955.56
2023-01-21T16:09:32.550Z,101946.06
2023-01-21T16:14:56.263Z,101951.44
2023-01-21T16:20:01.754Z,101954.94
2023-01-21T16:25:10.853Z,101950.69
2023-01-21T16:30:17.746Z,101961.34
2023-01-21T16:35:20.559Z,101957.94
2023-01-21T16:40:30.654Z,101960.66
2023-01-21T16:45:35.554Z,101959.81
2023-01-21T16:50:38.371Z,101963.31
2023-01-21T16:55:45.174Z,101963.31
2023-01-21T17:01:00.082Z,101964.13
2023-01-21T17:06:09.658Z,101967.56
2023-01-21T17:11:12.938Z,101969.28
2023-01-21T17:16:29.454Z,101972.84
2023-01-21T17:21:36.722Z,101979.84
2023-01-21T17:26:45.192Z,101982.44
2023-01-21T17:31:56.654Z,101993.81
2023-01-21T17:37:00.459Z,101986.84
2023-01-21T17:42:04.496Z,101993.84
2023-01-21T17:47:22.959Z,102000.88
2023-01-21T17:52:25.888Z,101999.03
2023-01-21T17:57:34.852Z,101985.78
2023-01-21T18:02:39.036Z,101979.63
2023-01-21T18:07:41.901Z,101984.00
2023-01-21T18:12:44.686Z,101974.38
2023-01-21T18:17:50.649Z,101968.28
2023-01-21T18:22:54.489Z,101968.13
2023-01-21T18:27:57.421Z,101968.13
2023-01-21T18:33:01.557Z,101959.25
2023-01-21T18:38:04.609Z,101956.63
2023-01-21T18:43:07.631Z,101965.44
2023-01-21T18:48:15.157Z,101976.78
2023-01-21T18:53:17.900Z,101975.81
2023-01-21T18:58:20.727Z,101970.47
2023-01-21T19:03:26.062Z,101975.72
2023-01-21T19:08:29.917Z,101981.09
2023-01-21T19:13:32.750Z,101975.91
2023-01-21T19:18:36.968Z,101973.25
2023-01-21T19:23:40.427Z,101969.84
2023-01-21T19:28:43.445Z,101961.91
2023-01-21T19:33:47.795Z,101969.84
2023-01-21T19:38:55.411Z,101963.66
2023-01-21T19:43:58.213Z,101972.50
2023-01-21T19:49:06.046Z,101963.59
2023-01-21T19:54:08.829Z,101964.66
2023-01-21T19:59:15.255Z,101974.53
2023-01-21T20:04:19.371Z,101966.50
2023-01-21T20:09:22.214Z,101955.75
2023-01-21T20:14:25.078Z,101953.22
2023-01-21T20:19:29.337Z,101953.28
2023-01-21T20:24:33.855Z,101950.63
2023-01-21T20:29:37.699Z,101936.59
2023-01-21T20:34:44.074Z,101942.69
2023-01-21T20:39:46.881Z,101953.28
2023-01-21T20:44:49.641Z,101946.97
2023-01-21T20:49:53.738Z,101954.03
2023-01-21T20:54:56.470Z,101957.56
2023-01-21T20:59:59.189Z,101961.97
2023-01-21T21:05:03.317Z,101966.59
2023-01-21T21:10:07.053Z,101973.41
2023-01-21T21:15:11.730Z,101963.69
2023-01-21T21:20:19.699Z,101969.94
2023-01-21T21:25:25.404Z,101969.09
2023-01-21T21:30:30.330Z,101963.69
2023-01-21T21:35:36.962Z,101961.25
2023-01-21T21:40:39.788Z,101948.19
2023-01-21T21:46:02.808Z,101948.94
2023-01-21T21:51:07.382Z,101923.31
2023-01-21T21:56:12.002Z,101941.94
2023-01-21T22:01:20.973Z,101949.72
2023-01-21T22:06:25.136Z,101947.94
2023-01-21T22:11:29.841Z,101943.56
2023-01-21T22:16:33.452Z,101938.28
2023-01-21T22:21:37.687Z,101948.84
2023-01-21T22:26:40.480Z,101942.66
2023-01-21T22:31:43.504Z,101937.25
2023-01-21T22:36:48.190Z,101931.19
2023-01-21T22:41:51.067Z,101930.28
2023-01-21T22:46:53.845Z,101930.28
2023-01-21T22:51:58.020Z,101932.06
2023-01-21T22:57:00.748Z,101936.66
2023-01-21T23:02:03.538Z,101920.09
2023-01-21T23:07:07.732Z,101924.44
2023-01-21T23:12:18.618Z,101904.97
2023-01-21T23:17:21.570Z,101918.19
2023-01-21T23:22:25.867Z,101906.75
2023-01-21T23:27:28.641Z,101910.28
2023-01-21T23:32:31.596Z,101904.09
2023-01-21T23:37:35.775Z,101906.03
2023-01-21T23:42:38.565Z,101901.75
2023-01-21T23:47:41.317Z,101903.63
2023-01-21T23:52:45.460Z,101918.75
2023-01-21T23:57:48.257Z,101908.13
